createdAt,value
2023-02-15T00:02:06.107Z,94.60
2023-02-15T00:04:48.702Z,94.50
2023-02-15T00:07:25.797Z,92.00
2023-02-15T00:10:00.937Z,81.10
2023-02-15T00:12:30.226Z,82.70
2023-02-15T00:15:01.200Z,80.50
2023-02-15T00:17:29.431Z,80.90
2023-02-15T00:19:57.324Z,82.50
2023-02-15T00:22:30.496Z,92.50
2023-02-15T00:25:07.298Z,90.60
2023-02-15T00:27:40.645Z,92.90
2023-02-15T00:30:09.865Z,92.20
2023-02-15T00:32:37.740Z,91.20
2023-02-15T00:35:09.642Z,90.70
2023-02-15T00:37:37.559Z,95.10
2023-02-15T00:40:14.688Z,94.70
2023-02-15T00:42:59.561Z,93.40
2023-02-15T00:45:29.895Z,93.90
2023-02-15T00:48:02.660Z,94.80
2023-02-15T00:50:39.474Z,95.30
2023-02-15T00:53:07.629Z,95.70
2023-02-15T00:55:35.496Z,95.10
2023-02-15T00:58:07.538Z,95.40
2023-02-15T01:00:39.000Z,95.40
2023-02-15T01:03:07.164Z,95.20
2023-02-15T01:05:35.040Z,95.10
2023-02-15T01:08:02.959Z,95.00
2023-02-15T01:10:35.396Z,94.80
2023-02-15T01:13:17.336Z,94.40
2023-02-15T01:15:46.106Z,94.20
2023-02-15T01:18:20.731Z,94.60
2023-02-15T01:20:48.650Z,95.00
2023-02-15T01:23:16.874Z,87.70
2023-02-15T01:25:50.013Z,83.00
2023-02-15T01:28:21.696Z,83.40
2023-02-15T01:30:52.806Z,85.50
2023-02-15T01:33:44.796Z,93.50
2023-02-15T01:36:18.225Z,96.40
2023-02-15T01:38:55.367Z,96.30
2023-02-15T01:41:24.595Z,95.20
2023-02-15T01:43:56.137Z,92.80
2023-02-15T01:46:37.353Z,90.70
2023-02-15T01:49:12.395Z,95.10
2023-02-15T01:51:49.518Z,95.00
2023-02-15T01:54:31.446Z,93.20
2023-02-15T01:57:04.410Z,94.30
2023-02-15T01:59:34.940Z,94.50
2023-02-15T02:02:04.254Z,95.20
2023-02-15T02:04:39.217Z,95.40
2023-02-15T02:07:10.547Z,95.20
2023-02-15T02:09:41.614Z,95.10
2023-02-15T02:12:10.735Z,94.80
2023-02-15T02:14:47.578Z,95.00
2023-02-15T02:17:34.786Z,95.10
2023-02-15T02:20:31.941Z,94.90
2023-02-15T02:23:26.825Z,94.70
2023-02-15T02:26:32.043Z,94.80
2023-02-15T02:29:37.476Z,94.30
2023-02-15T02:32:52.390Z,94.90
2023-02-15T02:35:41.792Z,94.90
2023-02-15T02:38:16.344Z,94.80
2023-02-15T02:40:57.875Z,94.80
2023-02-15T02:43:36.784Z,94.90
2023-02-15T02:46:20.397Z,95.10
2023-02-15T02:48:51.273Z,94.80
2023-02-15T02:51:23.840Z,94.10
2023-02-15T02:53:58.333Z,94.30
2023-02-15T02:56:31.086Z,93.30
2023-02-15T02:59:03.899Z,94.70
2023-02-15T03:01:47.787Z,94.80
2023-02-15T03:04:33.224Z,91.50
2023-02-15T03:07:05.176Z,91.70
2023-02-15T03:09:42.747Z,93.90
2023-02-15T03:12:19.426Z,94.60
2023-02-15T03:14:50.493Z,95.00
2023-02-15T03:17:20.826Z,94.30
2023-02-15T03:20:03.610Z,94.70
2023-02-15T03:22:38.298Z,94.80
2023-02-15T03:25:13.550Z,94.80
2023-02-15T03:27:55.410Z,95.00
2023-02-15T03:30:24.463Z,94.80
2023-02-15T03:33:09.129Z,94.80
2023-02-15T03:35:51.124Z,94.70
2023-02-15T03:38:29.977Z,93.60
2023-02-15T03:41:21.220Z,94.70
2023-02-15T03:43:56.833Z,93.90
2023-02-15T03:46:45.994Z,93.50
2023-02-15T03:49:19.562Z,94.30
2023-02-15T03:51:50.725Z,94.20
2023-02-15T03:54:38.699Z,94.90
2023-02-15T03:57:35.104Z,94.70
2023-02-15T04:00:49.789Z,94.20
2023-02-15T04:03:37.516Z,93.30
2023-02-15T04:06:05.669Z,94.60
2023-02-15T04:09:04.311Z,94.90
2023-02-15T04:11:34.994Z,94.60
2023-02-15T04:14:32.885Z,94.10
2023-02-15T04:17:03.152Z,93.80
2023-02-15T04:19:48.489Z,94.70
2023-02-15T04:22:40.206Z,94.80
2023-02-15T04:25:38.968Z,94.40
2023-02-15T04:28:12.622Z,92.90
2023-02-15T04:30:48.682Z,92.80
2023-02-15T04:33:22.769Z,94.60
2023-02-15T04:35:53.104Z,94.70
2023-02-15T04:38:30.001Z,94.60
2023-02-15T04:41:01.522Z,91.50
2023-02-15T04:43:35.190Z,92.30
2023-02-15T04:46:06.072Z,94.60
2023-02-15T04:48:36.252Z,94.60
2023-02-15T04:51:10.374Z,93.90
2023-02-15T04:53:40.413Z,94.60
2023-02-15T04:56:15.367Z,94.60
2023-02-15T04:58:54.464Z,94.90
2023-02-15T05:01:32.622Z,94.80
2023-02-15T05:04:00.517Z,94.60
2023-02-15T05:06:28.385Z,94.60
2023-02-15T05:09:00.302Z,94.50
2023-02-15T05:11:29.692Z,94.40
2023-02-15T05:13:57.524Z,94.30
2023-02-15T05:16:26.493Z,93.40
2023-02-15T05:18:54.419Z,93.90
2023-02-15T05:21:28.215Z,94.10
2023-02-15T05:23:56.070Z,90.40
2023-02-15T05:26:49.179Z,90.90
2023-02-15T05:29:28.769Z,92.40
2023-02-15T05:31:56.857Z,93.90
2023-02-15T05:34:27.626Z,93.50
2023-02-15T05:36:55.476Z,91.40
2023-02-15T05:39:35.810Z,93.40
2023-02-15T05:42:08.223Z,94.30
2023-02-15T05:44:36.079Z,92.00
2023-02-15T05:47:15.980Z,87.00
2023-02-15T05:49:44.276Z,89.10
2023-02-15T05:52:18.314Z,93.30
2023-02-15T05:54:46.195Z,94.60
2023-02-15T05:57:23.549Z,94.40
2023-02-15T05:59:54.246Z,94.00
2023-02-15T06:02:48.871Z,91.60
2023-02-15T06:05:24.817Z,89.40
2023-02-15T06:07:55.470Z,92.50
2023-02-15T06:10:24.607Z,92.70
2023-02-15T06:12:59.810Z,82.70
2023-02-15T06:15:27.725Z,80.00
2023-02-15T06:17:58.818Z,88.00
2023-02-15T06:20:26.845Z,90.60
2023-02-15T06:23:03.675Z,82.50
2023-02-15T06:25:31.531Z,85.10
2023-02-15T06:28:03.136Z,90.90
2023-02-15T06:30:34.129Z,94.30
2023-02-15T06:33:11.392Z,95.20
2023-02-15T06:35:39.250Z,95.00
2023-02-15T06:38:07.197Z,94.80
2023-02-15T06:40:35.044Z,94.60
2023-02-15T06:43:06.751Z,94.40
2023-02-15T06:45:37.443Z,94.20
2023-02-15T06:48:09.033Z,94.00
2023-02-15T06:50:39.205Z,93.80
2023-02-15T06:53:07.084Z,93.70
2023-02-15T06:55:37.958Z,93.90
2023-02-15T06:58:07.206Z,93.60
2023-02-15T07:00:35.155Z,89.00
2023-02-15T07:03:03.613Z,92.70
2023-02-15T07:05:35.356Z,92.30
2023-02-15T07:08:06.086Z,90.00
2023-02-15T07:10:36.882Z,82.40
2023-02-15T07:13:03.807Z,91.00
2023-02-15T07:15:33.038Z,91.80
2023-02-15T07:18:03.717Z,90.00
2023-02-15T07:20:31.656Z,78.20
2023-02-15T07:22:59.497Z,84.30
2023-02-15T07:25:27.406Z,91.60
2023-02-15T07:27:58.902Z,91.30
2023-02-15T07:30:26.830Z,89.40
2023-02-15T07:33:16.460Z,88.60
2023-02-15T07:35:49.736Z,90.50
2023-02-15T07:38:26.150Z,92.50
2023-02-15T07:41:13.125Z,93.00
2023-02-15T07:43:48.448Z,92.90
2023-02-15T07:46:22.831Z,92.90
2023-02-15T07:48:52.036Z,92.00
2023-02-15T07:51:25.680Z,92.00
2023-02-15T07:53:59.335Z,93.00
2023-02-15T07:56:32.199Z,93.00
2023-02-15T07:59:05.888Z,92.80
2023-02-15T08:01:36.137Z,93.00
2023-02-15T08:04:11.901Z,93.10
2023-02-15T08:06:40.399Z,93.20
2023-02-15T08:09:09.732Z,93.20
2023-02-15T08:11:43.712Z,93.20
2023-02-15T08:14:15.525Z,90.60
2023-02-15T08:16:44.745Z,84.70
2023-02-15T08:19:15.634Z,83.00
2023-02-15T08:21:45.497Z,84.60
2023-02-15T08:24:15.124Z,86.40
2023-02-15T08:26:43.798Z,87.20
2023-02-15T08:29:12.067Z,88.90
2023-02-15T08:31:42.800Z,90.20
2023-02-15T08:34:11.425Z,90.50
2023-02-15T08:36:43.226Z,89.70
2023-02-15T08:39:17.599Z,90.60
2023-02-15T08:41:46.828Z,90.20
2023-02-15T08:44:19.579Z,90.50
2023-02-15T08:46:49.398Z,88.60
2023-02-15T08:49:24.958Z,90.30
2023-02-15T08:51:54.330Z,87.40
2023-02-15T08:54:23.488Z,85.80
2023-02-15T08:56:51.428Z,92.00
2023-02-15T08:59:21.296Z,90.90
2023-02-15T09:01:50.852Z,90.50
2023-02-15T09:04:19.409Z,90.50
2023-02-15T09:06:55.984Z,89.70
2023-02-15T09:09:24.041Z,90.10
2023-02-15T09:11:58.711Z,91.20
2023-02-15T09:14:28.097Z,90.50
2023-02-15T09:17:01.896Z,91.10
2023-02-15T09:19:29.833Z,89.30
2023-02-15T09:22:04.439Z,91.90
2023-02-15T09:24:34.205Z,90.10
2023-02-15T09:27:14.304Z,90.70
2023-02-15T09:29:42.138Z,91.70
2023-02-15T09:32:09.962Z,92.50
2023-02-15T09:34:37.817Z,91.70
2023-02-15T09:37:07.557Z,92.50
2023-02-15T09:39:42.738Z,92.40
2023-02-15T09:42:37.192Z,92.50
2023-02-15T09:45:24.153Z,91.50
2023-02-15T09:48:15.467Z,92.50
2023-02-15T09:50:57.356Z,92.70
2023-02-15T09:53:53.527Z,88.90
2023-02-15T09:56:40.522Z,86.70
2023-02-15T09:59:22.464Z,84.50
2023-02-15T10:02:01.344Z,83.40
2023-02-15T10:04:49.731Z,83.20
2023-02-15T10:07:40.085Z,83.60
2023-02-15T10:10:22.857Z,84.00
2023-02-15T10:13:15.252Z,84.20
2023-02-15T10:16:00.673Z,85.20
2023-02-15T10:18:44.430Z,89.00
2023-02-15T10:21:25.736Z,90.50
2023-02-15T10:24:18.202Z,91.50
2023-02-15T10:26:50.693Z,91.50
2023-02-15T10:29:29.457Z,92.80
2023-02-15T10:32:16.105Z,93.10
2023-02-15T10:34:52.822Z,93.90
2023-02-15T10:37:57.717Z,94.20
2023-02-15T10:40:31.504Z,94.90
2023-02-15T10:43:29.899Z,95.20
2023-02-15T10:46:05.088Z,95.40
2023-02-15T10:49:09.126Z,96.00
2023-02-15T10:51:47.503Z,95.60
2023-02-15T10:54:29.254Z,95.70
2023-02-15T10:57:07.027Z,95.80
2023-02-15T11:00:12.447Z,95.40
2023-02-15T11:02:53.244Z,95.30
2023-02-15T11:05:42.757Z,95.10
2023-02-15T11:08:14.219Z,95.20
2023-02-15T11:10:47.206Z,95.50
2023-02-15T11:13:18.737Z,95.60
2023-02-15T11:15:51.350Z,95.50
2023-02-15T11:18:27.284Z,95.60
2023-02-15T11:20:58.631Z,95.60
2023-02-15T11:23:28.297Z,95.30
2023-02-15T11:26:06.581Z,94.60
2023-02-15T11:28:40.271Z,94.40
2023-02-15T11:31:22.243Z,94.70
2023-02-15T11:33:56.009Z,94.20
2023-02-15T11:36:30.436Z,94.50
2023-02-15T11:39:03.492Z,94.90
2023-02-15T11:41:36.952Z,94.80
2023-02-15T11:44:14.117Z,95.30
2023-02-15T11:46:45.632Z,93.00
2023-02-15T11:49:24.573Z,90.30
2023-02-15T11:51:53.643Z,87.40
2023-02-15T11:54:26.207Z,89.70
2023-02-15T11:57:14.498Z,86.40
2023-02-15T11:59:51.683Z,87.40
2023-02-15T12:02:23.786Z,87.70
2023-02-15T12:04:54.632Z,88.60
2023-02-15T12:07:27.225Z,86.60
2023-02-15T12:10:07.973Z,86.80
2023-02-15T12:12:37.098Z,85.20
2023-02-15T12:15:06.520Z,86.60
2023-02-15T12:17:40.112Z,87.50
2023-02-15T12:20:23.290Z,87.40
2023-02-15T12:22:57.373Z,85.30
2023-02-15T12:25:28.666Z,84.30
2023-02-15T12:28:00.035Z,85.30
2023-02-15T12:30:34.422Z,88.20
2023-02-15T12:33:23.407Z,90.10
2023-02-15T12:36:00.603Z,90.40
2023-02-15T12:38:30.347Z,89.00
2023-02-15T12:41:03.544Z,86.40
2023-02-15T12:43:35.068Z,85.50
2023-02-15T12:46:24.866Z,85.90
2023-02-15T12:49:13.844Z,85.60
2023-02-15T12:51:50.352Z,88.70
2023-02-15T12:54:23.391Z,90.70
2023-02-15T12:56:51.772Z,84.70
2023-02-15T12:59:23.522Z,92.70
2023-02-15T13:01:54.196Z,93.40
2023-02-15T13:04:27.602Z,94.50
2023-02-15T13:06:58.031Z,94.80
2023-02-15T13:09:42.355Z,95.20
2023-02-15T13:12:24.206Z,95.10
2023-02-15T13:14:57.093Z,95.70
2023-02-15T13:17:30.425Z,95.30
2023-02-15T13:20:03.816Z,95.90
2023-02-15T13:22:40.352Z,96.30
2023-02-15T13:25:24.224Z,96.20
2023-02-15T13:28:03.404Z,96.60
2023-02-15T13:30:37.994Z,96.50
2023-02-15T13:33:15.915Z,96.70
2023-02-15T13:35:57.876Z,96.70
2023-02-15T13:39:11.713Z,96.20
2023-02-15T13:42:03.063Z,95.50
2023-02-15T13:45:09.711Z,95.70
2023-02-15T13:47:53.821Z,95.90
2023-02-15T13:50:50.639Z,95.60
2023-02-15T13:53:43.724Z,96.00
2023-02-15T13:56:19.807Z,95.80
2023-02-15T13:59:24.020Z,95.60
2023-02-15T14:02:02.040Z,95.50
2023-02-15T14:05:03.538Z,95.90
2023-02-15T14:07:54.241Z,96.00
2023-02-15T14:10:48.797Z,96.40
2023-02-15T14:13:57.561Z,96.50
2023-02-15T14:17:05.750Z,96.80
2023-02-15T14:19:56.567Z,96.70
2023-02-15T14:22:33.693Z,96.60
2023-02-15T14:25:19.112Z,96.70
2023-02-15T14:28:03.462Z,96.30
2023-02-15T14:30:37.064Z,95.90
2023-02-15T14:33:33.204Z,95.70
2023-02-15T14:36:03.453Z,95.80
2023-02-15T14:38:53.706Z,96.00
2023-02-15T14:41:30.048Z,96.50
2023-02-15T14:44:09.440Z,96.20
2023-02-15T14:46:45.393Z,96.50
2023-02-15T14:49:23.458Z,96.60
2023-02-15T14:52:08.015Z,96.30
2023-02-15T14:55:03.602Z,96.50
2023-02-15T14:57:36.362Z,96.20
2023-02-15T15:00:47.507Z,96.40
2023-02-15T15:03:25.161Z,96.20
2023-02-15T15:05:56.048Z,96.00
2023-02-15T15:08:29.718Z,96.80
2023-02-15T15:11:02.445Z,96.90
2023-02-15T15:13:56.118Z,97.10
2023-02-15T15:16:51.665Z,97.40
2023-02-15T15:20:14.275Z,97.30
2023-02-15T15:22:56.680Z,97.60
2023-02-15T15:25:45.591Z,97.60
2023-02-15T15:29:00.639Z,97.70
2023-02-15T15:31:38.033Z,97.90
2023-02-15T15:38:29.828Z,94.90
2023-02-15T15:41:32.460Z,95.30
2023-02-15T15:44:32.969Z,95.70
2023-02-15T15:47:34.295Z,96.30
2023-02-15T15:50:04.846Z,96.60
2023-02-15T15:52:39.366Z,96.70
2023-02-15T15:55:18.825Z,96.70
2023-02-15T15:57:50.472Z,97.30
2023-02-15T16:00:37.610Z,97.40
2023-02-15T16:03:15.400Z,97.30
2023-02-15T16:05:53.760Z,97.50
2023-02-15T16:08:29.051Z,97.80
2023-02-15T16:10:58.517Z,97.70
2023-02-15T16:13:38.281Z,91.50
2023-02-15T16:16:09.202Z,91.40
2023-02-15T16:18:43.170Z,92.40
2023-02-15T16:21:19.728Z,92.90
2023-02-15T16:24:33.237Z,92.20
2023-02-15T16:27:30.879Z,93.10
2023-02-15T16:29:58.882Z,93.80
2023-02-15T16:32:37.213Z,94.20
2023-02-15T16:35:15.100Z,94.70
2023-02-15T16:37:46.750Z,94.90
2023-02-15T16:40:47.668Z,95.20
2023-02-15T16:43:24.780Z,95.70
2023-02-15T16:45:57.873Z,95.70
2023-02-15T16:48:32.203Z,95.80
2023-02-15T16:51:01.781Z,96.10
2023-02-15T16:53:31.004Z,96.10
2023-02-15T16:56:01.458Z,96.00
2023-02-15T16:58:34.107Z,96.30
2023-02-15T17:01:03.924Z,96.40
2023-02-15T17:03:41.066Z,96.40
2023-02-15T17:06:22.224Z,96.50
2023-02-15T17:09:04.259Z,96.70
2023-02-15T17:11:42.677Z,92.00
2023-02-15T17:14:33.875Z,94.00
2023-02-15T17:17:12.515Z,96.30
2023-02-15T17:19:50.481Z,96.60
2023-02-15T17:22:24.285Z,95.00
2023-02-15T17:25:00.778Z,96.70
2023-02-15T17:27:31.989Z,96.70
2023-02-15T17:30:19.978Z,94.10
2023-02-15T17:32:56.069Z,92.70
2023-02-15T17:35:26.080Z,93.10
2023-02-15T17:38:04.017Z,93.50
2023-02-15T17:40:33.504Z,93.80
2023-02-15T17:43:03.966Z,93.80
2023-02-15T17:45:38.371Z,94.10
2023-02-15T17:48:18.564Z,94.20
2023-02-15T17:53:36.874Z,93.30
2023-02-15T17:56:10.798Z,93.30
2023-02-15T17:58:39.216Z,93.50
2023-02-15T18:01:36.644Z,93.20
2023-02-15T18:04:36.035Z,92.90
2023-02-15T18:07:25.015Z,92.70
2023-02-15T18:10:16.133Z,92.90
2023-02-15T18:12:50.033Z,93.10
2023-02-15T18:15:20.940Z,93.00
2023-02-15T18:17:57.933Z,93.00
2023-02-15T18:20:28.763Z,93.10
2023-02-15T18:23:04.313Z,93.40
2023-02-15T18:25:35.111Z,93.60
2023-02-15T18:28:02.963Z,93.60
2023-02-15T18:30:34.514Z,93.60
2023-02-15T18:36:23.102Z,93.50
2023-02-15T18:38:54.396Z,93.50
2023-02-15T18:41:31.468Z,93.50
2023-02-15T18:43:59.295Z,93.10
2023-02-15T18:46:39.065Z,93.10
2023-02-15T18:49:11.084Z,93.30
2023-02-15T18:51:41.440Z,93.20
2023-02-15T18:54:23.532Z,93.30
2023-02-15T18:56:56.653Z,93.40
2023-02-15T18:59:35.953Z,93.50
2023-02-15T19:02:03.856Z,93.50
2023-02-15T19:04:38.621Z,93.50
2023-02-15T19:07:07.031Z,93.50
2023-02-15T19:09:45.898Z,93.20
2023-02-15T19:12:14.799Z,93.20
2023-02-15T19:14:42.751Z,93.20
2023-02-15T19:17:18.378Z,93.40
2023-02-15T19:19:53.917Z,93.30
2023-02-15T19:22:26.189Z,93.30
2023-02-15T19:24:55.258Z,93.30
2023-02-15T19:27:29.840Z,93.30
2023-02-15T19:30:19.725Z,93.30
2023-02-15T19:32:47.896Z,93.10
2023-02-15T19:35:19.793Z,93.10
2023-02-15T19:37:50.794Z,93.10
2023-02-15T19:40:24.142Z,93.10
2023-02-15T19:42:53.726Z,93.50
2023-02-15T19:45:30.890Z,93.80
2023-02-15T19:48:07.297Z,93.90
2023-02-15T19:50:47.072Z,94.20
2023-02-15T19:53:23.946Z,94.50
2023-02-15T19:55:55.252Z,94.70
2023-02-15T19:58:29.707Z,94.70
2023-02-15T20:01:06.244Z,94.90
2023-02-15T20:03:42.060Z,95.10
2023-02-15T20:06:15.676Z,95.00
2023-02-15T20:08:46.462Z,95.00
2023-02-15T20:11:15.027Z,95.00
2023-02-15T20:13:45.632Z,95.00
2023-02-15T20:16:19.986Z,94.90
2023-02-15T20:18:57.502Z,94.80
2023-02-15T20:21:29.807Z,95.00
2023-02-15T20:24:04.295Z,95.40
2023-02-15T20:26:52.046Z,95.10
2023-02-15T20:29:20.512Z,94.90
2023-02-15T20:31:52.857Z,94.70
2023-02-15T20:34:28.730Z,94.50
2023-02-15T20:36:58.007Z,94.60
2023-02-15T20:39:31.736Z,94.70
2023-02-15T20:42:02.684Z,94.50
2023-02-15T20:44:34.586Z,94.40
2023-02-15T20:47:10.912Z,94.40
2023-02-15T20:49:52.683Z,94.40
2023-02-15T20:52:22.126Z,94.40
2023-02-15T20:54:50.209Z,91.00
2023-02-15T20:57:21.263Z,89.10
2023-02-15T20:59:54.346Z,89.40
2023-02-15T21:02:31.274Z,90.30
2023-02-15T21:05:00.608Z,90.30
2023-02-15T21:07:32.201Z,91.30
2023-02-15T21:10:06.975Z,91.70
2023-02-15T21:12:34.876Z,91.60
2023-02-15T21:15:39.794Z,92.10
2023-02-15T21:18:12.188Z,92.60
2023-02-15T21:20:53.318Z,92.90
2023-02-15T21:23:25.424Z,93.30
2023-02-15T21:25:59.172Z,93.40
2023-02-15T21:28:31.682Z,93.40
2023-02-15T21:31:00.547Z,90.10
2023-02-15T21:33:28.742Z,89.90
2023-02-15T21:36:03.481Z,90.80
2023-02-15T21:38:47.293Z,93.40
2023-02-15T21:41:54.848Z,93.20
2023-02-15T21:44:43.804Z,93.30
2023-02-15T21:47:40.045Z,93.10
2023-02-15T21:50:34.749Z,94.00
2023-02-15T21:53:04.416Z,94.00
2023-02-15T21:55:34.079Z,94.00
2023-02-15T21:58:02.087Z,93.90
2023-02-15T22:00:31.667Z,93.80
2023-02-15T22:03:01.767Z,93.70
2023-02-15T22:05:38.724Z,93.40
2023-02-15T22:08:14.104Z,93.70
2023-02-15T22:10:44.941Z,94.00
2023-02-15T22:13:17.746Z,94.10
2023-02-15T22:15:48.505Z,94.30
2023-02-15T22:18:22.054Z,94.40
2023-02-15T22:20:50.008Z,94.30
2023-02-15T22:23:21.737Z,94.30
2023-02-15T22:25:57.714Z,94.30
2023-02-15T22:28:32.189Z,94.40
2023-02-15T22:31:11.532Z,94.50
2023-02-15T22:33:45.713Z,94.40
2023-02-15T22:36:23.702Z,94.30
2023-02-15T22:38:58.402Z,94.40
2023-02-15T22:41:30.418Z,94.50
2023-02-15T22:43:58.966Z,94.50
2023-02-15T22:46:27.879Z,94.50
2023-02-15T22:49:00.938Z,94.40
2023-02-15T22:51:32.214Z,94.50
2023-02-15T22:54:00.104Z,94.50
2023-02-15T22:56:37.805Z,94.40
2023-02-15T22:59:08.780Z,94.40
2023-02-15T23:01:38.998Z,94.30
2023-02-15T23:04:07.177Z,94.30
2023-02-15T23:06:35.544Z,94.20
2023-02-15T23:09:06.353Z,94.20
2023-02-15T23:11:45.768Z,94.10
2023-02-15T23:14:25.896Z,94.00
2023-02-15T23:16:53.965Z,94.10
2023-02-15T23:19:28.143Z,94.20
2023-02-15T23:21:56.103Z,94.30
2023-02-15T23:24:27.156Z,94.20
2023-02-15T23:27:17.508Z,94.10
2023-02-15T23:29:47.574Z,94.20
2023-02-15T23:32:17.758Z,94.10
2023-02-15T23:34:48.929Z,94.00
2023-02-15T23:37:17.972Z,93.90
2023-02-15T23:40:07.234Z,93.30
2023-02-15T23:42:36.690Z,93.00
2023-02-15T23:45:05.440Z,94.00
2023-02-15T23:47:53.937Z,94.10
2023-02-15T23:50:24.643Z,94.10
2023-02-15T23:52:56.687Z,93.80
2023-02-15T23:55:25.994Z,94.00
2023-02-15T23:57:55.328Z,94.10
